createdAt,value
2019-02-11T00:00:07.008Z,7.80
2019-02-11T00:01:08.333Z,7.50
2019-02-11T00:02:09.704Z,7.72
2019-02-11T00:03:11.071Z,8.08
2019-02-11T00:04:12.389Z,7.90
2019-02-11T00:05:13.718Z,7.53
2019-02-11T00:06:15.066Z,7.92
2019-02-11T00:07:16.404Z,7.62
2019-02-11T00:08:17.750Z,8.35
2019-02-11T00:09:19.069Z,7.20
2019-02-11T00:10:20.401Z,9.08
2019-02-11T00:11:21.732Z,7.90
2019-02-11T00:12:23.081Z,7.37
2019-02-11T00:13:24.394Z,7.90
2019-02-11T00:14:25.723Z,7.45
2019-02-11T00:15:27.038Z,7.28
2019-02-11T00:16:28.430Z,7.22
2019-02-11T00:17:29.798Z,7.00
2019-02-11T00:18:31.118Z,7.85
2019-02-11T00:19:32.447Z,7.08
2019-02-11T00:20:33.783Z,6.97
2019-02-11T00:21:35.152Z,6.78
2019-02-11T00:22:36.491Z,6.85
2019-02-11T00:23:37.807Z,5.92
2019-02-11T00:24:39.134Z,7.15
2019-02-11T00:25:40.493Z,6.03
2019-02-11T00:26:41.839Z,6.30
2019-02-11T00:27:43.186Z,6.22
2019-02-11T00:28:44.509Z,6.67
2019-02-11T00:29:45.869Z,6.35
2019-02-11T00:30:47.226Z,5.78
2019-02-11T00:31:48.554Z,6.40
2019-02-11T00:32:49.960Z,6.42
2019-02-11T00:33:51.407Z,5.95
2019-02-11T00:34:52.723Z,5.47
2019-02-11T00:35:54.114Z,5.25
2019-02-11T00:36:55.421Z,4.83
2019-02-11T00:37:56.757Z,4.97
2019-02-11T00:38:58.071Z,3.90
2019-02-11T00:39:59.393Z,4.25
2019-02-11T00:41:00.800Z,4.30
2019-02-11T00:42:02.129Z,4.28
2019-02-11T00:43:03.494Z,4.12
2019-02-11T00:44:04.863Z,3.60
2019-02-11T00:45:06.211Z,3.90
2019-02-11T00:46:07.558Z,3.87
2019-02-11T00:47:09.189Z,3.70
2019-02-11T00:48:10.536Z,3.35
2019-02-11T00:49:11.873Z,2.90
2019-02-11T00:50:13.241Z,2.90
2019-02-11T00:51:14.564Z,2.77
2019-02-11T00:52:16.018Z,2.85
2019-02-11T00:53:17.369Z,2.58
2019-02-11T00:54:18.778Z,3.27
2019-02-11T00:55:20.104Z,2.85
2019-02-11T00:56:21.412Z,2.70
2019-02-11T00:57:22.772Z,3.47
2019-02-11T00:58:24.111Z,2.60
2019-02-11T00:59:25.428Z,2.72
2019-02-11T01:00:26.791Z,3.50
2019-02-11T01:01:28.098Z,3.22
2019-02-11T01:02:29.653Z,3.55
2019-02-11T01:03:31.009Z,3.33
2019-02-11T01:04:32.354Z,3.20
2019-02-11T01:05:34.197Z,3.60
2019-02-11T01:06:35.643Z,3.60
2019-02-11T01:07:37.187Z,3.58
2019-02-11T01:08:38.772Z,3.98
2019-02-11T01:09:40.574Z,4.50
2019-02-11T01:10:42.053Z,4.12
2019-02-11T01:11:43.590Z,3.95
2019-02-11T01:12:45.010Z,3.90
2019-02-11T01:13:46.833Z,4.05
2019-02-11T01:14:48.355Z,3.92
2019-02-11T01:15:49.857Z,4.60
2019-02-11T01:16:51.293Z,4.30
2019-02-11T01:17:52.807Z,3.87
2019-02-11T01:18:56.229Z,4.40
2019-02-11T01:19:57.845Z,4.33
2019-02-11T01:20:59.832Z,4.20
2019-02-11T01:22:01.484Z,4.45
2019-02-11T01:23:02.945Z,3.87
2019-02-11T01:24:04.332Z,3.33
2019-02-11T01:25:06.015Z,3.80
2019-02-11T01:26:07.543Z,4.15
2019-02-11T01:27:09.361Z,4.10
2019-02-11T01:28:11.286Z,4.33
2019-02-11T01:29:12.709Z,4.00
2019-02-11T01:30:14.523Z,3.67
2019-02-11T01:31:16.019Z,3.83
2019-02-11T01:32:17.571Z,4.55
2019-02-11T01:33:20.033Z,4.17
2019-02-11T01:34:21.527Z,4.30
2019-02-11T01:35:23.327Z,3.77
2019-02-11T01:36:24.769Z,4.10
2019-02-11T01:37:26.285Z,4.67
2019-02-11T01:38:27.915Z,5.03
2019-02-11T01:39:29.390Z,5.00
2019-02-11T01:40:30.835Z,5.15
2019-02-11T01:41:32.516Z,5.55
2019-02-11T01:42:34.335Z,5.72
2019-02-11T01:43:36.406Z,5.70
2019-02-11T01:44:38.315Z,5.83
2019-02-11T01:45:39.990Z,5.75
2019-02-11T01:46:41.513Z,6.70
2019-02-11T01:47:44.204Z,6.03
2019-02-11T01:48:46.391Z,6.67
2019-02-11T01:49:47.771Z,5.65
2019-02-11T01:50:49.152Z,6.08
2019-02-11T01:51:50.479Z,5.75
2019-02-11T01:52:51.853Z,6.65
2019-02-11T01:53:53.214Z,6.40
2019-02-11T01:54:54.553Z,6.53
2019-02-11T01:55:55.947Z,6.47
2019-02-11T01:56:57.294Z,6.53
2019-02-11T01:57:58.625Z,6.25
2019-02-11T01:58:59.957Z,6.47
2019-02-11T02:00:01.272Z,5.78
2019-02-11T02:01:02.618Z,5.55
2019-02-11T02:02:03.997Z,6.50
2019-02-11T02:03:05.366Z,5.65
2019-02-11T02:04:06.902Z,5.40
2019-02-11T02:05:08.267Z,6.53
2019-02-11T02:06:09.619Z,6.08
2019-02-11T02:07:10.938Z,5.90
2019-02-11T02:08:12.250Z,5.78
2019-02-11T02:09:13.608Z,5.60
2019-02-11T02:10:14.942Z,5.80
2019-02-11T02:11:16.303Z,4.97
2019-02-11T02:12:17.615Z,5.85
2019-02-11T02:13:18.947Z,5.55
2019-02-11T02:14:20.254Z,5.17
2019-02-11T02:15:21.573Z,5.00
2019-02-11T02:16:22.920Z,5.05
2019-02-11T02:17:24.515Z,5.15
2019-02-11T02:18:25.867Z,5.60
2019-02-11T02:19:27.218Z,5.50
2019-02-11T02:20:28.551Z,5.20
2019-02-11T02:21:29.865Z,5.03
2019-02-11T02:22:31.199Z,4.80
2019-02-11T02:23:32.550Z,4.67
2019-02-11T02:24:33.874Z,5.67
2019-02-11T02:25:35.212Z,5.30
2019-02-11T02:26:36.506Z,4.65
2019-02-11T02:27:37.848Z,4.97
2019-02-11T02:28:39.198Z,4.80
2019-02-11T02:29:40.549Z,4.50
2019-02-11T02:30:41.881Z,4.83
2019-02-11T02:31:43.195Z,5.90
2019-02-11T02:32:44.526Z,5.05
2019-02-11T02:33:45.883Z,5.20
2019-02-11T02:34:47.254Z,5.03
2019-02-11T02:35:48.572Z,4.87
2019-02-11T02:36:49.889Z,5.12
2019-02-11T02:37:51.206Z,4.65
2019-02-11T02:38:52.579Z,4.72
2019-02-11T02:39:53.904Z,4.45
2019-02-11T02:40:55.271Z,4.70
2019-02-11T02:41:56.603Z,4.40
2019-02-11T02:42:58.077Z,5.00
2019-02-11T02:43:59.400Z,4.95
2019-02-11T02:45:00.767Z,5.25
2019-02-11T02:46:02.093Z,3.90
2019-02-11T02:47:03.422Z,4.35
2019-02-11T02:48:04.776Z,3.67
2019-02-11T02:49:06.100Z,4.22
2019-02-11T02:50:07.466Z,4.30
2019-02-11T02:51:08.814Z,4.08
2019-02-11T02:52:10.137Z,4.47
2019-02-11T02:53:11.455Z,3.58
2019-02-11T02:54:12.787Z,3.33
2019-02-11T02:55:14.134Z,3.95
2019-02-11T02:56:15.463Z,3.02
2019-02-11T02:57:16.791Z,3.50
2019-02-11T02:58:18.134Z,3.30
2019-02-11T02:59:19.482Z,3.45
2019-02-11T03:00:20.786Z,3.12
2019-02-11T03:01:22.125Z,3.67
2019-02-11T03:02:23.479Z,3.70
2019-02-11T03:03:24.803Z,3.35
2019-02-11T03:04:26.128Z,3.58
2019-02-11T03:05:27.437Z,3.40
2019-02-11T03:06:28.777Z,3.45
2019-02-11T03:07:30.405Z,3.90
2019-02-11T03:08:31.770Z,3.60
2019-02-11T03:09:33.196Z,4.10
2019-02-11T03:10:34.518Z,4.10
2019-02-11T03:11:35.875Z,3.42
2019-02-11T03:12:37.185Z,3.35
2019-02-11T03:13:38.555Z,3.60
2019-02-11T03:14:39.906Z,3.67
2019-02-11T03:15:41.225Z,3.70
2019-02-11T03:16:42.534Z,3.33
2019-02-11T03:17:43.877Z,3.98
2019-02-11T03:18:45.225Z,3.58
2019-02-11T03:19:46.556Z,3.50
2019-02-11T03:20:47.888Z,3.65
2019-02-11T03:21:49.239Z,3.70
2019-02-11T03:22:50.557Z,3.42
2019-02-11T03:23:51.922Z,4.08
2019-02-11T03:24:53.243Z,3.90
2019-02-11T03:25:54.590Z,3.55
2019-02-11T03:26:55.904Z,3.67
2019-02-11T03:27:57.221Z,3.98
2019-02-11T03:28:58.566Z,3.22
2019-02-11T03:29:59.889Z,3.33
2019-02-11T03:31:01.221Z,3.83
2019-02-11T03:32:02.588Z,3.22
2019-02-11T03:33:03.985Z,3.67
2019-02-11T03:34:05.367Z,3.40
2019-02-11T03:35:06.740Z,3.12
2019-02-11T03:36:08.049Z,3.50
2019-02-11T03:37:09.373Z,3.67
2019-02-11T03:38:10.699Z,3.62
2019-02-11T03:39:12.013Z,3.98
2019-02-11T03:40:13.359Z,3.90
2019-02-11T03:41:14.704Z,3.60
2019-02-11T03:42:16.030Z,3.40
2019-02-11T03:43:17.395Z,4.40
2019-02-11T03:44:18.711Z,3.30
2019-02-11T03:45:20.046Z,3.65
2019-02-11T03:46:21.371Z,4.00
2019-02-11T03:47:22.726Z,4.00
2019-02-11T03:48:24.052Z,3.90
2019-02-11T03:49:25.395Z,3.65
2019-02-11T03:50:26.809Z,3.87
2019-02-11T03:51:28.155Z,3.77
2019-02-11T03:52:29.506Z,3.77
2019-02-11T03:53:30.845Z,4.53
2019-02-11T03:54:32.247Z,3.62
2019-02-11T03:55:33.581Z,3.72
2019-02-11T03:56:34.903Z,4.08
2019-02-11T03:57:36.292Z,3.70
2019-02-11T03:58:37.705Z,3.45
2019-02-11T03:59:39.184Z,3.62
2019-02-11T04:00:40.500Z,3.50
2019-02-11T04:01:41.863Z,4.17
2019-02-11T04:02:43.228Z,3.77
2019-02-11T04:03:44.561Z,3.40
2019-02-11T04:04:45.885Z,3.90
2019-02-11T04:05:47.242Z,3.42
2019-02-11T04:06:48.568Z,3.50
2019-02-11T04:07:49.905Z,3.87
2019-02-11T04:08:51.232Z,3.77
2019-02-11T04:09:52.566Z,3.70
2019-02-11T04:10:53.919Z,3.70
2019-02-11T04:11:55.226Z,4.05
2019-02-11T04:12:56.547Z,3.85
2019-02-11T04:13:57.875Z,3.67
2019-02-11T04:14:59.229Z,3.95
2019-02-11T04:16:00.675Z,3.92
2019-02-11T04:17:02.113Z,3.50
2019-02-11T04:18:03.457Z,3.65
2019-02-11T04:19:04.803Z,3.72
2019-02-11T04:20:06.143Z,3.83
2019-02-11T04:21:07.508Z,3.42
2019-02-11T04:22:08.937Z,3.65
2019-02-11T04:23:10.284Z,4.20
2019-02-11T04:24:11.632Z,4.17
2019-02-11T04:25:12.946Z,3.83
2019-02-11T04:26:14.285Z,4.05
2019-02-11T04:27:15.667Z,3.92
2019-02-11T04:28:17.094Z,3.95
2019-02-11T04:29:18.405Z,4.03
2019-02-11T04:30:19.743Z,3.62
2019-02-11T04:31:21.067Z,3.98
2019-02-11T04:32:22.603Z,4.35
2019-02-11T04:33:23.951Z,4.37
2019-02-11T04:34:25.278Z,3.90
2019-02-11T04:35:26.634Z,4.40
2019-02-11T04:36:27.940Z,4.33
2019-02-11T04:37:29.430Z,3.60
2019-02-11T04:38:30.758Z,3.30
2019-02-11T04:39:32.100Z,3.25
2019-02-11T04:40:33.449Z,3.80
2019-02-11T04:41:34.786Z,2.77
2019-02-11T04:42:36.103Z,3.22
2019-02-11T04:43:37.428Z,3.37
2019-02-11T04:44:38.761Z,3.40
2019-02-11T04:45:40.236Z,2.83
2019-02-11T04:46:41.669Z,2.77
2019-02-11T04:47:42.977Z,3.02
2019-02-11T04:48:44.294Z,3.25
2019-02-11T04:49:45.719Z,3.40
2019-02-11T04:50:47.070Z,2.98
2019-02-11T04:51:48.416Z,3.17
2019-02-11T04:52:49.732Z,3.02
2019-02-11T04:53:51.052Z,2.85
2019-02-11T04:54:52.365Z,2.77
2019-02-11T04:55:53.734Z,2.85
2019-02-11T04:56:55.050Z,2.35
2019-02-11T04:57:56.418Z,2.90
2019-02-11T04:58:57.741Z,2.65
2019-02-11T04:59:59.071Z,2.58
2019-02-11T05:01:00.400Z,2.42
2019-02-11T05:02:01.787Z,2.20
2019-02-11T05:03:03.230Z,2.42
2019-02-11T05:04:04.557Z,2.10
2019-02-11T05:05:05.984Z,2.27
2019-02-11T05:06:07.376Z,2.40
2019-02-11T05:07:08.745Z,2.27
2019-02-11T05:08:10.214Z,2.87
2019-02-11T05:09:11.543Z,2.77
2019-02-11T05:10:12.855Z,2.10
2019-02-11T05:11:14.179Z,1.92
2019-02-11T05:12:15.504Z,1.87
2019-02-11T05:13:16.876Z,2.05
2019-02-11T05:14:18.189Z,2.40
2019-02-11T05:15:19.506Z,2.75
2019-02-11T05:16:20.881Z,2.00
2019-02-11T05:17:22.206Z,2.02
2019-02-11T05:18:23.523Z,3.15
2019-02-11T05:19:24.862Z,2.67
2019-02-11T05:20:26.210Z,1.80
2019-02-11T05:21:27.559Z,2.25
2019-02-11T05:22:28.931Z,2.42
2019-02-11T05:23:30.258Z,2.92
2019-02-11T05:24:31.570Z,2.27
2019-02-11T05:25:32.965Z,2.40
2019-02-11T05:26:34.285Z,2.17
2019-02-11T05:27:35.634Z,2.40
2019-02-11T05:28:36.997Z,2.60
2019-02-11T05:29:38.307Z,2.60
2019-02-11T05:30:39.683Z,2.42
2019-02-11T05:31:41.014Z,3.15
2019-02-11T05:32:42.405Z,2.27
2019-02-11T05:33:43.782Z,2.80
2019-02-11T05:34:45.157Z,2.47
2019-02-11T05:35:46.555Z,2.80
2019-02-11T05:36:47.901Z,3.02
2019-02-11T05:37:49.426Z,2.45
2019-02-11T05:38:50.795Z,2.40
2019-02-11T05:39:52.130Z,2.85
2019-02-11T05:40:53.447Z,3.45
2019-02-11T05:41:54.781Z,3.35
2019-02-11T05:42:56.160Z,2.98
2019-02-11T05:43:57.514Z,3.45
2019-02-11T05:44:58.858Z,3.98
2019-02-11T05:46:00.230Z,3.47
2019-02-11T05:47:01.553Z,3.42
2019-02-11T05:48:02.919Z,4.40
2019-02-11T05:49:04.326Z,3.83
2019-02-11T05:50:05.686Z,3.90
2019-02-11T05:51:07.019Z,4.15
2019-02-11T05:52:08.332Z,3.80
2019-02-11T05:53:09.677Z,3.70
2019-02-11T05:54:11.013Z,4.10
2019-02-11T05:55:12.476Z,3.92
2019-02-11T05:56:13.797Z,3.65
2019-02-11T05:57:15.139Z,3.27
2019-02-11T05:58:16.541Z,3.70
2019-02-11T05:59:17.871Z,3.33
2019-02-11T06:00:19.515Z,3.08
2019-02-11T06:01:20.844Z,3.50
2019-02-11T06:02:22.185Z,2.85
2019-02-11T06:03:23.639Z,3.45
2019-02-11T06:04:25.059Z,3.27
2019-02-11T06:05:26.424Z,3.50
2019-02-11T06:06:27.726Z,3.37
2019-02-11T06:07:29.062Z,3.20
2019-02-11T06:08:30.481Z,2.72
2019-02-11T06:09:31.806Z,3.10
2019-02-11T06:10:33.201Z,2.92
2019-02-11T06:11:34.599Z,2.60
2019-02-11T06:12:35.926Z,3.42
2019-02-11T06:13:37.284Z,2.83
2019-02-11T06:14:38.606Z,2.35
2019-02-11T06:15:39.918Z,2.60
2019-02-11T06:16:41.251Z,2.80
2019-02-11T06:17:42.609Z,3.00
2019-02-11T06:18:44.019Z,2.62
2019-02-11T06:19:45.466Z,3.27
2019-02-11T06:20:47.107Z,3.10
2019-02-11T06:21:48.433Z,3.00
2019-02-11T06:22:49.748Z,2.50
2019-02-11T06:23:51.118Z,2.42
2019-02-11T06:24:52.459Z,3.05
2019-02-11T06:25:53.844Z,3.12
2019-02-11T06:26:55.164Z,2.75
2019-02-11T06:27:56.540Z,2.98
2019-02-11T06:28:57.871Z,3.10
2019-02-11T06:29:59.190Z,2.95
2019-02-11T06:31:00.526Z,3.05
2019-02-11T06:32:01.841Z,3.05
2019-02-11T06:33:03.294Z,2.50
2019-02-11T06:34:04.705Z,3.15
2019-02-11T06:35:06.035Z,3.60
2019-02-11T06:36:12.496Z,3.30
2019-02-11T06:37:10.576Z,3.42
2019-02-11T06:38:12.040Z,3.92
2019-02-11T06:39:13.382Z,4.28
2019-02-11T06:40:14.703Z,4.08
2019-02-11T06:41:16.025Z,4.87
2019-02-11T06:42:17.374Z,3.35
2019-02-11T06:43:18.729Z,3.25
2019-02-11T06:44:20.078Z,3.60
2019-02-11T06:45:21.403Z,2.47
2019-02-11T06:46:22.733Z,3.20
2019-02-11T06:47:24.110Z,3.70
2019-02-11T06:48:25.424Z,3.37
2019-02-11T06:49:26.818Z,3.40
2019-02-11T06:50:28.254Z,3.80
2019-02-11T06:51:29.730Z,3.62
2019-02-11T06:52:31.038Z,3.55
2019-02-11T06:53:32.384Z,3.37
2019-02-11T06:54:33.748Z,3.52
2019-02-11T06:55:35.087Z,3.42
2019-02-11T06:56:36.449Z,3.70
2019-02-11T06:57:37.792Z,3.70
2019-02-11T06:58:39.118Z,2.90
2019-02-11T06:59:40.443Z,4.05
2019-02-11T07:00:41.771Z,3.50
2019-02-11T07:01:43.147Z,2.80
2019-02-11T07:02:44.497Z,2.70
2019-02-11T07:03:45.806Z,3.45
2019-02-11T07:04:47.142Z,3.37
2019-02-11T07:05:48.514Z,3.62
2019-02-11T07:06:49.852Z,2.85
2019-02-11T07:07:51.187Z,3.12
2019-02-11T07:08:52.542Z,3.35
2019-02-11T07:09:53.880Z,3.02
2019-02-11T07:10:55.880Z,3.50
2019-02-11T07:11:57.407Z,3.75
2019-02-11T07:12:58.739Z,3.83
2019-02-11T07:14:00.080Z,3.35
2019-02-11T07:15:01.455Z,4.00
2019-02-11T07:16:02.797Z,4.17
2019-02-11T07:17:04.220Z,6.92
2019-02-11T07:18:05.536Z,14.43
2019-02-11T07:19:06.871Z,4.03
2019-02-11T07:20:08.290Z,3.52
2019-02-11T07:21:09.702Z,3.62
2019-02-11T07:22:11.025Z,3.72
2019-02-11T07:23:12.361Z,3.62
2019-02-11T07:24:13.689Z,3.47
2019-02-11T07:25:16.546Z,3.62
2019-02-11T07:26:18.278Z,4.22
2019-02-11T07:27:19.617Z,3.60
2019-02-11T07:28:20.938Z,3.37
2019-02-11T07:29:22.479Z,3.70
2019-02-11T07:30:23.800Z,3.85
2019-02-11T07:31:25.171Z,3.47
2019-02-11T07:32:26.500Z,3.85
2019-02-11T07:33:27.839Z,3.70
2019-02-11T07:34:29.165Z,3.50
2019-02-11T07:35:30.537Z,3.72
2019-02-11T07:36:31.859Z,3.20
2019-02-11T07:37:33.199Z,4.45
2019-02-11T07:38:34.508Z,3.87
2019-02-11T07:39:35.859Z,4.33
2019-02-11T07:40:37.210Z,3.87
2019-02-11T07:41:38.555Z,3.77
2019-02-11T07:42:39.949Z,4.28
2019-02-11T07:43:41.287Z,4.03
2019-02-11T07:44:42.624Z,3.77
2019-02-11T07:45:43.958Z,4.45
2019-02-11T07:46:45.319Z,3.83
2019-02-11T07:47:46.677Z,3.83
2019-02-11T07:48:48.007Z,3.25
2019-02-11T07:49:49.338Z,3.60
2019-02-11T07:50:50.665Z,5.05
2019-02-11T07:51:51.986Z,4.58
2019-02-11T07:52:53.354Z,3.42
2019-02-11T07:53:54.713Z,3.62
2019-02-11T07:54:56.031Z,4.10
2019-02-11T07:55:57.408Z,3.70
2019-02-11T07:56:58.773Z,3.77
2019-02-11T07:58:00.093Z,3.80
2019-02-11T07:59:01.493Z,3.30
2019-02-11T08:00:02.809Z,3.60
2019-02-11T08:01:04.194Z,3.45
2019-02-11T08:02:05.523Z,3.42
2019-02-11T08:03:06.869Z,3.52
2019-02-11T08:04:08.178Z,3.02
2019-02-11T08:05:09.509Z,3.58
2019-02-11T08:06:10.829Z,3.95
2019-02-11T08:07:12.200Z,3.52
2019-02-11T08:08:13.610Z,3.22
2019-02-11T08:09:15.086Z,4.12
2019-02-11T08:10:16.442Z,2.67
2019-02-11T08:11:17.778Z,3.02
2019-02-11T08:12:19.119Z,4.47
2019-02-11T08:13:20.444Z,3.42
2019-02-11T08:14:21.826Z,4.20
2019-02-11T08:15:23.135Z,3.50
2019-02-11T08:16:24.461Z,3.58
2019-02-11T08:17:25.776Z,2.83
2019-02-11T08:18:27.125Z,3.12
2019-02-11T08:19:28.495Z,3.08
2019-02-11T08:20:29.839Z,3.10
2019-02-11T08:21:31.162Z,3.08
2019-02-11T08:22:32.490Z,3.17
2019-02-11T08:23:33.853Z,3.02
2019-02-11T08:24:35.234Z,2.92
2019-02-11T08:25:36.586Z,2.83
2019-02-11T08:26:37.914Z,3.08
2019-02-11T08:27:39.245Z,3.37
2019-02-11T08:28:40.580Z,3.60
2019-02-11T08:29:41.946Z,3.58
2019-02-11T08:30:43.303Z,3.20
2019-02-11T08:31:44.610Z,3.50
2019-02-11T08:32:45.966Z,2.98
2019-02-11T08:33:47.302Z,3.25
2019-02-11T08:34:48.669Z,3.92
2019-02-11T08:35:49.997Z,3.77
2019-02-11T08:36:51.308Z,3.30
2019-02-11T08:37:52.665Z,3.40
2019-02-11T08:38:54.006Z,3.90
2019-02-11T08:39:55.333Z,3.85
2019-02-11T08:40:56.703Z,4.35
2019-02-11T08:41:58.024Z,4.10
2019-02-11T08:42:59.355Z,4.28
2019-02-11T08:44:00.683Z,4.62
2019-02-11T08:45:02.038Z,4.33
2019-02-11T08:46:03.400Z,4.28
2019-02-11T08:47:04.743Z,4.47
2019-02-11T08:48:06.096Z,4.50
2019-02-11T08:49:07.474Z,4.53
2019-02-11T08:50:08.934Z,4.62
2019-02-11T08:51:10.391Z,4.92
2019-02-11T08:52:11.727Z,5.37
2019-02-11T08:53:13.247Z,4.58
2019-02-11T08:54:14.744Z,4.70
2019-02-11T08:55:16.135Z,4.78
2019-02-11T08:56:17.732Z,5.17
2019-02-11T08:57:19.053Z,4.40
2019-02-11T08:58:20.451Z,5.40
2019-02-11T08:59:21.869Z,4.90
2019-02-11T09:00:23.190Z,5.17
2019-02-11T09:01:24.554Z,4.90
2019-02-11T09:02:25.904Z,5.03
2019-02-11T09:03:27.287Z,5.22
2019-02-11T09:04:28.836Z,4.25
2019-02-11T09:05:30.194Z,4.87
2019-02-11T09:06:31.538Z,5.42
2019-02-11T09:07:32.930Z,4.20
2019-02-11T09:08:34.338Z,4.97
2019-02-11T09:09:35.711Z,5.03
2019-02-11T09:10:37.064Z,5.22
2019-02-11T09:11:38.421Z,4.62
2019-02-11T09:12:39.790Z,4.60
2019-02-11T09:13:41.110Z,4.72
2019-02-11T09:14:42.462Z,4.83
2019-02-11T09:15:43.866Z,4.92
2019-02-11T09:16:45.195Z,4.40
2019-02-11T09:17:46.561Z,5.58
2019-02-11T09:18:47.930Z,4.40
2019-02-11T09:19:49.254Z,4.85
2019-02-11T09:20:50.591Z,4.70
2019-02-11T09:21:51.913Z,5.55
2019-02-11T09:22:53.306Z,5.45
2019-02-11T09:23:54.651Z,6.10
2019-02-11T09:24:55.971Z,5.22
2019-02-11T09:25:57.320Z,5.28
2019-02-11T09:26:58.627Z,5.55
2019-02-11T09:28:00.131Z,5.55
2019-02-11T09:29:01.463Z,5.12
2019-02-11T09:30:02.794Z,5.72
2019-02-11T09:31:04.127Z,5.72
2019-02-11T09:32:05.502Z,5.65
2019-02-11T09:33:06.877Z,5.65
2019-02-11T09:34:08.215Z,4.97
2019-02-11T09:35:09.533Z,5.50
2019-02-11T09:36:10.900Z,5.53
2019-02-11T09:37:12.230Z,6.30
2019-02-11T09:38:13.638Z,6.05
2019-02-11T09:39:14.978Z,4.87
2019-02-11T09:40:16.364Z,5.25
2019-02-11T09:41:17.703Z,5.55
2019-02-11T09:42:19.045Z,5.10
2019-02-11T09:43:20.356Z,4.78
2019-02-11T09:44:29.321Z,5.92
2019-02-11T09:45:24.933Z,5.15
2019-02-11T09:46:26.321Z,5.35
2019-02-11T09:47:27.737Z,5.25
2019-02-11T09:48:29.073Z,5.80
2019-02-11T09:49:30.452Z,5.60
2019-02-11T09:50:31.807Z,6.05
2019-02-11T09:51:33.125Z,6.37
2019-02-11T09:52:34.464Z,5.95
2019-02-11T09:53:35.781Z,6.60
2019-02-11T09:54:37.162Z,5.58
2019-02-11T09:55:38.498Z,5.25
2019-02-11T09:56:39.847Z,6.55
2019-02-11T09:57:41.188Z,5.65
2019-02-11T09:58:42.618Z,5.72
2019-02-11T09:59:43.982Z,6.60
2019-02-11T10:00:45.307Z,6.62
2019-02-11T10:01:46.634Z,6.00
2019-02-11T10:02:47.974Z,6.75
2019-02-11T10:03:49.318Z,6.20
2019-02-11T10:04:50.681Z,6.00
2019-02-11T10:05:52.026Z,6.62
2019-02-11T10:06:53.348Z,7.05
2019-02-11T10:07:54.922Z,6.55
2019-02-11T10:08:56.276Z,6.42
2019-02-11T10:09:57.601Z,6.65
2019-02-11T10:10:58.954Z,6.45
2019-02-11T10:12:00.293Z,6.00
2019-02-11T10:13:01.614Z,6.75
2019-02-11T10:14:02.946Z,5.95
2019-02-11T10:15:04.284Z,4.10
2019-02-11T10:16:12.405Z,3.37
2019-02-11T10:17:08.972Z,2.67
2019-02-11T10:18:10.404Z,3.65
2019-02-11T10:19:11.717Z,2.52
2019-02-11T10:20:13.087Z,3.05
2019-02-11T10:21:14.421Z,3.58
2019-02-11T10:22:15.747Z,3.62
2019-02-11T10:23:18.195Z,2.90
2019-02-11T10:24:19.777Z,3.00
2019-02-11T10:25:21.101Z,2.70
2019-02-11T10:26:22.608Z,2.85
2019-02-11T10:27:24.222Z,2.40
2019-02-11T10:28:25.553Z,2.22
2019-02-11T10:29:27.061Z,2.40
2019-02-11T10:30:28.566Z,2.22
2019-02-11T10:31:29.958Z,2.62
2019-02-11T10:32:31.289Z,2.83
2019-02-11T10:33:32.612Z,2.80
2019-02-11T10:34:33.979Z,2.40
2019-02-11T10:35:42.127Z,2.62
2019-02-11T10:36:38.546Z,2.52
2019-02-11T10:37:39.878Z,2.50
2019-02-11T10:38:41.288Z,2.55
2019-02-11T10:39:42.728Z,2.37
2019-02-11T10:40:44.080Z,2.50
2019-02-11T10:41:45.449Z,2.75
2019-02-11T10:42:46.776Z,2.65
2019-02-11T10:43:48.112Z,2.67
2019-02-11T10:44:49.441Z,3.10
2019-02-11T10:45:50.788Z,2.80
2019-02-11T10:46:52.159Z,3.15
2019-02-11T10:47:53.525Z,3.70
2019-02-11T10:48:54.857Z,4.45
2019-02-11T10:49:56.211Z,4.03
2019-02-11T10:50:57.852Z,4.33
2019-02-11T10:51:59.314Z,4.53
2019-02-11T10:53:00.762Z,4.62
2019-02-11T10:54:02.062Z,4.97
2019-02-11T10:55:03.474Z,4.83
2019-02-11T10:56:04.912Z,4.40
2019-02-11T10:57:06.231Z,4.15
2019-02-11T10:58:07.572Z,5.08
2019-02-11T10:59:08.926Z,4.37
2019-02-11T11:00:10.276Z,4.72
2019-02-11T11:01:13.012Z,4.83
2019-02-11T11:02:14.857Z,5.92
2019-02-11T11:03:16.270Z,4.97
2019-02-11T11:04:17.762Z,5.40
2019-02-11T11:05:19.125Z,5.85
2019-02-11T11:06:20.476Z,5.83
2019-02-11T11:07:21.813Z,5.67
2019-02-11T11:08:23.177Z,5.55
2019-02-11T11:09:24.488Z,6.17
2019-02-11T11:10:25.851Z,5.42
2019-02-11T11:11:27.168Z,5.70
2019-02-11T11:12:28.503Z,5.85
2019-02-11T11:13:29.907Z,5.37
2019-02-11T11:14:31.501Z,4.60
2019-02-11T11:15:32.829Z,4.95
2019-02-11T11:16:34.284Z,4.30
2019-02-11T11:17:35.628Z,4.67
2019-02-11T11:18:36.958Z,4.65
2019-02-11T11:19:38.302Z,5.03
2019-02-11T11:20:39.633Z,5.12
2019-02-11T11:21:41.002Z,4.65
2019-02-11T11:22:42.355Z,4.40
2019-02-11T11:23:43.730Z,4.60
2019-02-11T11:24:45.070Z,5.22
2019-02-11T11:25:46.586Z,4.28
2019-02-11T11:26:47.941Z,5.28
2019-02-11T11:27:49.312Z,4.83
2019-02-11T11:28:50.680Z,4.65
2019-02-11T11:29:52.084Z,4.60
2019-02-11T11:30:53.426Z,4.25
2019-02-11T11:31:54.849Z,4.87
2019-02-11T11:32:56.210Z,4.85
2019-02-11T11:33:57.568Z,4.22
2019-02-11T11:34:58.905Z,5.33
2019-02-11T11:36:00.294Z,5.53
2019-02-11T11:37:01.703Z,4.03
2019-02-11T11:38:03.053Z,5.47
2019-02-11T11:39:04.364Z,4.40
2019-02-11T11:40:05.758Z,4.97
2019-02-11T11:41:07.080Z,5.95
2019-02-11T11:42:08.647Z,6.55
2019-02-11T11:43:10.026Z,4.55
2019-02-11T11:44:11.366Z,4.58
2019-02-11T11:45:12.737Z,3.87
2019-02-11T11:46:14.150Z,4.25
2019-02-11T11:47:15.788Z,4.15
2019-02-11T11:48:17.142Z,3.67
2019-02-11T11:49:18.494Z,3.72
2019-02-11T11:50:19.826Z,3.47
2019-02-11T11:51:21.150Z,4.08
2019-02-11T11:52:22.492Z,4.70
2019-02-11T11:53:23.979Z,4.15
2019-02-11T11:54:25.343Z,3.60
2019-02-11T11:55:26.759Z,3.90
2019-02-11T11:56:28.104Z,4.28
2019-02-11T11:57:29.552Z,4.28
2019-02-11T11:58:31.018Z,4.60
2019-02-11T11:59:32.499Z,4.72
2019-02-11T12:00:33.887Z,4.50
2019-02-11T12:01:35.203Z,4.62
2019-02-11T12:02:36.583Z,4.30
2019-02-11T12:03:37.962Z,4.47
2019-02-11T12:04:39.294Z,4.62
2019-02-11T12:05:40.637Z,3.90
2019-02-11T12:06:42.092Z,4.05
2019-02-11T12:07:43.532Z,4.17
2019-02-11T12:08:44.920Z,3.75
2019-02-11T12:09:46.344Z,3.80
2019-02-11T12:10:47.818Z,3.27
2019-02-11T12:11:49.195Z,3.65
2019-02-11T12:12:50.616Z,4.17
2019-02-11T12:13:52.054Z,4.30
2019-02-11T12:14:53.481Z,3.62
2019-02-11T12:15:54.943Z,3.98
2019-02-11T12:17:02.276Z,4.47
2019-02-11T12:17:59.664Z,2.80
2019-02-11T12:19:01.035Z,2.47
2019-02-11T12:20:02.514Z,1.87
2019-02-11T12:21:03.859Z,2.27
2019-02-11T12:22:05.279Z,2.02
2019-02-11T12:23:06.637Z,2.65
2019-02-11T12:24:08.074Z,2.02
2019-02-11T12:25:09.676Z,2.37
2019-02-11T12:26:11.103Z,2.37
2019-02-11T12:27:12.587Z,2.92
2019-02-11T12:28:14.033Z,2.58
2019-02-11T12:29:15.484Z,2.47
2019-02-11T12:30:17.052Z,2.72
2019-02-11T12:31:18.470Z,2.85
2019-02-11T12:32:19.833Z,3.40
2019-02-11T12:33:21.311Z,3.52
2019-02-11T12:34:22.817Z,2.72
2019-02-11T12:35:24.304Z,3.00
2019-02-11T12:36:25.730Z,3.00
2019-02-11T12:37:27.172Z,2.67
2019-02-11T12:38:28.515Z,2.90
2019-02-11T12:39:29.884Z,2.90
2019-02-11T12:40:31.230Z,2.75
2019-02-11T12:41:32.676Z,3.27
2019-02-11T12:42:34.007Z,2.83
2019-02-11T12:43:35.373Z,3.33
2019-02-11T12:44:36.692Z,3.40
2019-02-11T12:45:38.055Z,4.00
2019-02-11T12:46:39.436Z,4.37
2019-02-11T12:47:40.887Z,4.80
2019-02-11T12:48:42.199Z,3.25
2019-02-11T12:49:43.520Z,2.55
2019-02-11T12:50:44.881Z,2.55
2019-02-11T12:51:46.327Z,2.67
2019-02-11T12:52:48.005Z,3.00
2019-02-11T12:53:49.397Z,2.35
2019-02-11T12:54:50.789Z,2.67
2019-02-11T12:55:52.170Z,2.40
2019-02-11T12:56:53.515Z,2.40
2019-02-11T12:57:54.911Z,2.50
2019-02-11T12:58:56.332Z,2.40
2019-02-11T12:59:57.643Z,2.37
2019-02-11T13:00:59.002Z,2.58
2019-02-11T13:02:00.374Z,2.83
2019-02-11T13:03:01.901Z,2.92
2019-02-11T13:04:03.240Z,2.90
2019-02-11T13:05:04.682Z,2.60
2019-02-11T13:06:06.135Z,2.25
2019-02-11T13:07:07.452Z,2.95
2019-02-11T13:08:08.805Z,3.20
2019-02-11T13:09:10.180Z,2.95
2019-02-11T13:10:11.598Z,3.17
2019-02-11T13:11:13.189Z,2.70
2019-02-11T13:12:14.661Z,3.15
2019-02-11T13:13:16.093Z,2.80
2019-02-11T13:14:17.525Z,2.37
2019-02-11T13:15:42.820Z,2.72
2019-02-11T13:16:22.190Z,3.20
2019-02-11T13:17:34.104Z,2.95
2019-02-11T13:18:27.192Z,3.17
2019-02-11T13:19:28.661Z,3.05
2019-02-11T13:20:30.082Z,3.50
2019-02-11T13:21:31.410Z,3.75
2019-02-11T13:22:32.753Z,3.55
2019-02-11T13:23:34.125Z,3.40
2019-02-11T13:24:35.502Z,3.45
2019-02-11T13:25:36.913Z,3.37
2019-02-11T13:26:38.350Z,3.25
2019-02-11T13:27:39.835Z,4.62
2019-02-11T13:28:41.252Z,4.15
2019-02-11T13:29:42.591Z,3.83
2019-02-11T13:30:43.917Z,3.67
2019-02-11T13:31:45.289Z,3.22
2019-02-11T13:32:46.706Z,3.60
2019-02-11T13:33:48.287Z,3.02
2019-02-11T13:34:49.625Z,3.87
2019-02-11T13:35:51.000Z,3.12
2019-02-11T13:36:52.326Z,3.47